createdAt,value
2022-07-30T00:00:36.780Z,16.06
2022-07-30T00:03:03.338Z,16.02
2022-07-30T00:05:29.769Z,16.04
2022-07-30T00:07:56.192Z,16.02
2022-07-30T00:10:23.119Z,16.04
2022-07-30T00:12:49.819Z,16.07
2022-07-30T00:15:16.236Z,16.08
2022-07-30T00:17:42.572Z,16.11
2022-07-30T00:20:13.248Z,16.17
2022-07-30T00:22:40.367Z,16.30
2022-07-30T00:25:07.239Z,16.21
2022-07-30T00:27:35.108Z,16.16
2022-07-30T00:30:03.775Z,16.18
2022-07-30T00:32:30.185Z,16.32
2022-07-30T00:34:56.556Z,16.38
2022-07-30T00:37:23.126Z,16.28
2022-07-30T00:39:49.695Z,16.20
2022-07-30T00:42:17.641Z,16.17
2022-07-30T00:44:43.991Z,16.22
2022-07-30T00:47:10.371Z,16.18
2022-07-30T00:49:39.303Z,16.11
2022-07-30T00:52:07.834Z,16.04
2022-07-30T00:54:34.195Z,15.99
2022-07-30T00:57:00.774Z,16.06
2022-07-30T00:59:31.514Z,16.11
2022-07-30T01:02:00.434Z,16.09
2022-07-30T01:04:27.066Z,16.13
2022-07-30T01:06:53.460Z,16.09
2022-07-30T01:09:19.900Z,16.04
2022-07-30T01:11:46.247Z,15.95
2022-07-30T01:14:12.849Z,15.93
2022-07-30T01:16:42.637Z,15.90
2022-07-30T01:19:38.509Z,15.90
2022-07-30T01:22:14.527Z,15.88
2022-07-30T01:24:47.379Z,15.86
2022-07-30T01:27:18.062Z,15.87
2022-07-30T01:29:47.290Z,15.93
2022-07-30T01:32:19.031Z,15.86
2022-07-30T01:34:46.772Z,15.83
2022-07-30T01:37:15.433Z,15.85
2022-07-30T01:39:42.627Z,15.74
2022-07-30T01:42:10.646Z,15.66
2022-07-30T01:44:39.067Z,15.68
2022-07-30T01:47:08.578Z,15.72
2022-07-30T01:49:36.451Z,15.81
2022-07-30T01:52:04.489Z,15.79
2022-07-30T01:54:33.176Z,15.78
2022-07-30T01:57:01.381Z,15.79
2022-07-30T01:59:30.331Z,15.74
2022-07-30T02:01:56.730Z,15.71
2022-07-30T02:04:23.276Z,15.82
2022-07-30T02:07:03.069Z,15.83
2022-07-30T02:09:36.065Z,15.90
2022-07-30T02:12:22.904Z,15.82
2022-07-30T02:14:56.398Z,15.67
2022-07-30T02:17:30.381Z,15.56
2022-07-30T02:20:04.690Z,15.50
2022-07-30T02:22:39.412Z,15.45
2022-07-30T02:25:08.865Z,15.39
2022-07-30T02:27:38.830Z,15.32
2022-07-30T02:30:05.946Z,15.31
2022-07-30T02:32:38.657Z,15.37
2022-07-30T02:35:11.465Z,15.38
2022-07-30T02:37:42.967Z,15.40
2022-07-30T02:40:14.026Z,15.41
2022-07-30T02:42:42.015Z,15.37
2022-07-30T02:45:09.763Z,15.31
2022-07-30T02:47:38.254Z,15.25
2022-07-30T02:50:06.760Z,15.24
2022-07-30T02:52:35.128Z,15.26
2022-07-30T02:55:03.063Z,15.27
2022-07-30T02:57:30.973Z,15.33
2022-07-30T02:59:58.480Z,15.34
2022-07-30T03:02:29.092Z,15.36
2022-07-30T03:04:58.757Z,15.31
2022-07-30T03:07:27.015Z,15.33
2022-07-30T03:09:55.851Z,15.36
2022-07-30T03:12:25.630Z,15.40
2022-07-30T03:14:52.226Z,15.42
2022-07-30T03:17:19.828Z,15.43
2022-07-30T03:19:49.268Z,15.45
2022-07-30T03:22:19.006Z,15.51
2022-07-30T03:24:47.645Z,15.49
2022-07-30T03:27:16.154Z,15.46
2022-07-30T03:29:45.768Z,15.33
2022-07-30T03:32:13.863Z,15.28
2022-07-30T03:34:42.132Z,15.30
2022-07-30T03:37:10.926Z,15.30
2022-07-30T03:39:38.428Z,15.35
2022-07-30T03:42:07.814Z,15.35
2022-07-30T03:44:35.013Z,15.29
2022-07-30T03:47:03.320Z,15.37
2022-07-30T03:49:30.006Z,15.30
2022-07-30T03:51:57.499Z,15.19
2022-07-30T03:54:24.938Z,15.12
2022-07-30T03:56:51.471Z,15.09
2022-07-30T03:59:18.044Z,15.13
2022-07-30T04:01:44.493Z,15.15
2022-07-30T04:04:11.335Z,15.13
2022-07-30T04:06:42.825Z,15.08
2022-07-30T04:09:11.108Z,15.07
2022-07-30T04:11:41.343Z,15.07
2022-07-30T04:14:08.675Z,14.98
2022-07-30T04:16:50.185Z,15.08
2022-07-30T04:19:22.036Z,15.12
2022-07-30T04:21:50.767Z,15.09
2022-07-30T04:24:18.727Z,15.14
2022-07-30T04:26:46.234Z,15.07
2022-07-30T04:29:13.850Z,15.13
2022-07-30T04:31:44.314Z,15.06
2022-07-30T04:34:15.013Z,15.02
2022-07-30T04:36:42.475Z,14.99
2022-07-30T04:39:10.061Z,14.92
2022-07-30T04:41:48.773Z,14.90
2022-07-30T04:44:17.561Z,14.88
2022-07-30T04:46:44.202Z,14.83
2022-07-30T04:49:12.580Z,14.95
2022-07-30T04:51:40.288Z,15.01
2022-07-30T04:54:15.264Z,15.13
2022-07-30T04:56:53.262Z,15.18
2022-07-30T04:59:23.419Z,15.17
2022-07-30T05:01:50.474Z,15.19
2022-07-30T05:04:18.335Z,15.15
2022-07-30T05:06:45.602Z,15.11
2022-07-30T05:09:12.366Z,15.06
2022-07-30T05:11:38.779Z,15.11
2022-07-30T05:14:05.227Z,15.19
2022-07-30T05:16:33.987Z,15.04
2022-07-30T05:19:00.529Z,15.17
2022-07-30T05:21:29.038Z,15.02
2022-07-30T05:23:56.626Z,15.22
2022-07-30T05:26:27.879Z,15.30
2022-07-30T05:28:55.972Z,15.42
2022-07-30T05:31:24.198Z,15.35
2022-07-30T05:33:51.606Z,15.47
2022-07-30T05:36:18.980Z,15.59
2022-07-30T05:38:45.592Z,15.70
2022-07-30T05:41:31.840Z,15.82
2022-07-30T05:43:58.333Z,15.91
2022-07-30T05:46:24.818Z,16.04
2022-07-30T05:48:51.297Z,16.08
2022-07-30T05:51:19.613Z,16.14
2022-07-30T05:53:46.188Z,16.23
2022-07-30T05:56:12.615Z,16.30
2022-07-30T05:58:38.974Z,16.59
2022-07-30T06:01:05.545Z,16.76
2022-07-30T06:03:31.905Z,16.88
2022-07-30T06:05:58.358Z,16.95
2022-07-30T06:08:24.762Z,17.08
2022-07-30T06:10:51.124Z,17.21
2022-07-30T06:13:17.464Z,17.35
2022-07-30T06:15:43.841Z,17.31
2022-07-30T06:18:10.246Z,17.34
2022-07-30T06:20:36.682Z,17.51
2022-07-30T06:23:03.085Z,17.48
2022-07-30T06:25:29.558Z,17.67
2022-07-30T06:27:57.610Z,17.85
2022-07-30T06:30:30.297Z,18.07
2022-07-30T06:32:57.686Z,18.28
2022-07-30T06:35:24.025Z,18.39
2022-07-30T06:38:06.370Z,18.52
2022-07-30T06:40:34.557Z,18.75
2022-07-30T06:43:00.954Z,19.06
2022-07-30T06:45:27.301Z,19.26
2022-07-30T06:47:58.591Z,19.44
2022-07-30T06:50:25.924Z,19.45
2022-07-30T06:52:52.535Z,19.44
2022-07-30T06:55:19.017Z,19.74
2022-07-30T06:57:45.438Z,19.96
2022-07-30T07:00:12.231Z,20.29
2022-07-30T07:02:39.195Z,20.52
2022-07-30T07:05:07.187Z,20.70
2022-07-30T07:07:42.045Z,20.64
2022-07-30T07:10:11.243Z,20.45
2022-07-30T07:12:37.635Z,20.47
2022-07-30T07:15:05.121Z,20.35
2022-07-30T07:17:31.802Z,20.29
2022-07-30T07:20:01.074Z,20.26
2022-07-30T07:22:29.039Z,20.06
2022-07-30T07:24:55.485Z,19.95
2022-07-30T07:27:22.076Z,20.08
2022-07-30T07:30:05.011Z,20.14
2022-07-30T07:32:32.948Z,20.20
2022-07-30T07:34:59.294Z,20.05
2022-07-30T07:37:25.776Z,20.16
2022-07-30T07:39:52.232Z,20.14
2022-07-30T07:42:18.607Z,20.01
2022-07-30T07:44:44.944Z,19.77
2022-07-30T07:47:11.458Z,19.76
2022-07-30T07:49:37.788Z,19.75
2022-07-30T07:52:04.456Z,19.77
2022-07-30T07:54:30.835Z,19.74
2022-07-30T07:56:57.218Z,19.64
2022-07-30T07:59:31.006Z,19.82
2022-07-30T08:02:06.348Z,20.15
2022-07-30T08:04:34.402Z,19.98
2022-07-30T08:07:00.930Z,20.06
2022-07-30T08:09:27.461Z,20.10
2022-07-30T08:12:10.313Z,20.29
2022-07-30T08:14:36.646Z,20.63
2022-07-30T08:17:03.314Z,21.06
2022-07-30T08:19:29.787Z,20.94
2022-07-30T08:21:57.074Z,20.96
2022-07-30T08:24:23.374Z,20.94
2022-07-30T08:26:49.865Z,21.05
2022-07-30T08:29:17.352Z,21.13
2022-07-30T08:31:43.827Z,21.19
2022-07-30T08:34:10.276Z,21.28
2022-07-30T08:36:36.662Z,21.36
2022-07-30T08:39:03.221Z,21.45
2022-07-30T08:41:30.824Z,21.44
2022-07-30T08:44:00.013Z,21.77
2022-07-30T08:46:31.313Z,21.83
2022-07-30T08:49:00.554Z,21.78
2022-07-30T08:51:35.356Z,21.89
2022-07-30T08:54:03.412Z,21.83
2022-07-30T08:56:30.212Z,21.88
2022-07-30T08:58:57.902Z,21.43
2022-07-30T09:01:24.231Z,21.55
2022-07-30T09:03:50.646Z,21.50
2022-07-30T09:06:17.162Z,21.76
2022-07-30T09:08:43.842Z,21.73
2022-07-30T09:11:10.716Z,21.98
2022-07-30T09:13:41.539Z,21.94
2022-07-30T09:16:19.507Z,21.88
2022-07-30T09:18:45.909Z,21.85
2022-07-30T09:21:23.247Z,22.12
2022-07-30T09:24:10.781Z,21.58
2022-07-30T09:26:57.304Z,21.48
2022-07-30T09:29:26.369Z,21.36
2022-07-30T09:31:53.992Z,21.42
2022-07-30T09:34:34.119Z,21.55
2022-07-30T09:37:04.104Z,21.89
2022-07-30T09:39:35.744Z,22.00
2022-07-30T09:42:04.994Z,22.18
2022-07-30T09:44:31.731Z,21.90
2022-07-30T09:46:58.869Z,22.33
2022-07-30T09:49:27.654Z,22.29
2022-07-30T09:51:57.545Z,21.83
2022-07-30T09:54:51.887Z,22.30
2022-07-30T09:57:25.487Z,22.33
2022-07-30T09:59:53.960Z,22.26
2022-07-30T10:02:28.293Z,21.77
2022-07-30T10:04:54.706Z,21.73
2022-07-30T10:07:25.020Z,21.94
2022-07-30T10:09:53.210Z,22.04
2022-07-30T10:12:24.018Z,22.40
2022-07-30T10:14:53.663Z,22.56
2022-07-30T10:17:22.048Z,22.78
2022-07-30T10:19:48.993Z,22.23
2022-07-30T10:22:17.006Z,22.24
2022-07-30T10:24:45.220Z,22.42
2022-07-30T10:27:12.025Z,22.46
2022-07-30T10:29:42.714Z,22.41
2022-07-30T10:32:10.489Z,22.49
2022-07-30T10:34:38.177Z,22.49
2022-07-30T10:37:11.175Z,22.85
2022-07-30T10:39:59.249Z,23.22
2022-07-30T10:42:41.409Z,23.33
2022-07-30T10:45:18.401Z,23.47
2022-07-30T10:47:48.531Z,23.66
2022-07-30T10:50:26.299Z,23.70
2022-07-30T10:52:55.907Z,23.90
2022-07-30T10:55:36.948Z,24.09
2022-07-30T10:58:14.294Z,23.92
2022-07-30T11:00:51.081Z,24.11
2022-07-30T11:03:40.365Z,24.01
2022-07-30T11:06:24.459Z,23.78
2022-07-30T11:08:51.532Z,23.52
2022-07-30T11:11:20.789Z,23.60
2022-07-30T11:14:07.170Z,23.55
2022-07-30T11:16:34.255Z,23.36
2022-07-30T11:19:56.467Z,23.61
2022-07-30T11:22:23.796Z,24.06
2022-07-30T11:24:50.221Z,24.17
2022-07-30T11:27:38.206Z,24.12
2022-07-30T11:30:10.637Z,23.89
2022-07-30T11:32:37.395Z,23.71
2022-07-30T11:35:34.545Z,23.59
2022-07-30T11:38:15.642Z,23.32
2022-07-30T11:40:45.522Z,22.79
2022-07-30T11:43:35.175Z,22.81
2022-07-30T11:46:16.243Z,22.67
2022-07-30T11:48:56.148Z,22.39
2022-07-30T11:51:23.689Z,22.05
2022-07-30T11:54:04.895Z,21.83
2022-07-30T11:56:31.509Z,21.79
2022-07-30T11:59:05.100Z,21.67
2022-07-30T12:01:33.324Z,21.41
2022-07-30T12:04:04.063Z,21.14
2022-07-30T12:06:32.000Z,20.90
2022-07-30T12:08:59.325Z,20.68
2022-07-30T12:11:31.998Z,20.33
2022-07-30T12:13:59.952Z,20.29
2022-07-30T12:16:27.878Z,20.25
2022-07-30T12:18:55.039Z,19.93
2022-07-30T12:21:21.864Z,19.90
2022-07-30T12:23:55.637Z,19.80
2022-07-30T12:26:33.937Z,19.81
2022-07-30T12:29:02.783Z,19.84
2022-07-30T12:31:29.458Z,19.98
2022-07-30T12:33:58.204Z,20.03
2022-07-30T12:36:25.963Z,19.80
2022-07-30T12:38:54.387Z,19.76
2022-07-30T12:41:21.719Z,19.74
2022-07-30T12:43:55.979Z,19.75
2022-07-30T12:46:27.947Z,19.75
2022-07-30T12:48:57.213Z,19.58
2022-07-30T12:51:27.866Z,19.38
2022-07-30T12:53:56.985Z,19.47
2022-07-30T12:56:25.687Z,19.82
2022-07-30T12:58:53.163Z,19.97
2022-07-30T13:01:19.620Z,19.98
2022-07-30T13:03:46.175Z,19.99
2022-07-30T13:06:18.770Z,20.07
2022-07-30T13:08:53.356Z,20.22
2022-07-30T13:11:22.352Z,20.28
2022-07-30T13:13:50.133Z,20.40
2022-07-30T13:16:18.587Z,20.46
2022-07-30T13:18:46.020Z,20.64
2022-07-30T13:21:12.574Z,20.45
2022-07-30T13:23:40.487Z,20.55
2022-07-30T13:26:09.309Z,20.71
2022-07-30T13:28:35.825Z,21.01
2022-07-30T13:31:02.311Z,21.12
2022-07-30T13:33:28.714Z,21.02
2022-07-30T13:35:55.351Z,20.96
2022-07-30T13:38:21.822Z,21.02
2022-07-30T13:40:48.340Z,21.14
2022-07-30T13:43:14.992Z,21.49
2022-07-30T13:45:41.374Z,21.49
2022-07-30T13:48:07.848Z,21.70
2022-07-30T13:50:34.242Z,21.89
2022-07-30T13:53:02.450Z,22.10
2022-07-30T13:55:29.247Z,22.35
2022-07-30T13:57:56.177Z,22.80
2022-07-30T14:00:23.073Z,23.04
2022-07-30T14:02:49.560Z,23.28
2022-07-30T14:05:16.111Z,23.48
2022-07-30T14:07:42.554Z,23.62
2022-07-30T14:10:09.402Z,23.82
2022-07-30T14:12:35.809Z,24.06
2022-07-30T14:15:02.240Z,23.97
2022-07-30T14:17:28.633Z,24.24
2022-07-30T14:19:55.039Z,24.33
2022-07-30T14:22:21.774Z,24.49
2022-07-30T14:24:48.547Z,24.55
2022-07-30T14:27:15.095Z,24.45
2022-07-30T14:29:41.493Z,24.03
2022-07-30T14:32:07.860Z,23.97
2022-07-30T14:34:34.202Z,23.81
2022-07-30T14:37:01.892Z,23.54
2022-07-30T14:39:28.513Z,23.97
2022-07-30T14:41:56.109Z,24.01
2022-07-30T14:44:23.189Z,24.30
2022-07-30T14:46:52.533Z,24.08
2022-07-30T14:49:20.084Z,24.06
2022-07-30T14:51:46.743Z,23.91
2022-07-30T14:54:13.091Z,23.91
2022-07-30T14:56:39.768Z,24.08
2022-07-30T14:59:06.171Z,24.33
2022-07-30T15:01:32.735Z,24.37
2022-07-30T15:03:59.665Z,24.45
2022-07-30T15:06:26.611Z,24.34
2022-07-30T15:08:53.320Z,24.08
2022-07-30T15:11:21.849Z,24.38
2022-07-30T15:13:50.158Z,24.66
2022-07-30T15:16:18.101Z,24.53
2022-07-30T15:18:44.823Z,24.43
2022-07-30T15:21:12.336Z,24.45
2022-07-30T15:23:38.925Z,24.26
2022-07-30T15:26:05.272Z,24.35
2022-07-30T15:28:31.675Z,24.36
2022-07-30T15:30:58.203Z,24.69
2022-07-30T15:33:24.595Z,24.61
2022-07-30T15:35:50.999Z,24.28
2022-07-30T15:38:17.665Z,24.08
2022-07-30T15:40:46.513Z,24.05
2022-07-30T15:43:12.864Z,24.10
2022-07-30T15:45:55.267Z,23.90
2022-07-30T15:51:00.806Z,23.41
2022-07-30T15:53:27.276Z,23.31
2022-07-30T15:55:53.876Z,23.41
2022-07-30T15:58:20.236Z,23.41
2022-07-30T16:00:47.002Z,23.39
2022-07-30T16:03:13.371Z,23.21
2022-07-30T16:05:52.237Z,23.18
2022-07-30T16:08:20.581Z,23.07
2022-07-30T16:10:47.651Z,22.95
2022-07-30T16:13:14.129Z,23.01
2022-07-30T16:15:40.576Z,23.20
2022-07-30T16:18:07.013Z,23.22
2022-07-30T16:20:34.739Z,23.23
2022-07-30T16:23:01.181Z,23.16
2022-07-30T16:25:27.554Z,23.32
2022-07-30T16:27:53.974Z,23.31
2022-07-30T16:30:20.578Z,23.46
2022-07-30T16:32:46.928Z,23.46
2022-07-30T16:35:13.630Z,23.43
2022-07-30T16:37:40.122Z,23.31
2022-07-30T16:40:06.906Z,23.46
2022-07-30T16:42:33.320Z,23.42
2022-07-30T16:44:59.690Z,23.35
2022-07-30T16:47:26.073Z,23.32
2022-07-30T16:49:52.524Z,23.25
2022-07-30T16:52:18.917Z,23.30
2022-07-30T16:54:45.328Z,23.46
2022-07-30T16:57:11.660Z,23.61
2022-07-30T16:59:38.327Z,23.68
2022-07-30T17:02:05.293Z,23.72
2022-07-30T17:04:33.604Z,23.75
2022-07-30T17:06:59.990Z,23.84
2022-07-30T17:09:26.398Z,23.84
2022-07-30T17:11:55.891Z,23.87
2022-07-30T17:14:25.939Z,23.99
2022-07-30T17:16:52.287Z,23.70
2022-07-30T17:19:18.703Z,23.98
2022-07-30T17:21:45.084Z,23.92
2022-07-30T17:24:13.315Z,23.81
2022-07-30T17:26:43.020Z,23.84
2022-07-30T17:29:14.903Z,23.91
2022-07-30T17:31:43.933Z,23.79
2022-07-30T17:34:13.501Z,23.88
2022-07-30T17:36:42.121Z,23.88
2022-07-30T17:39:18.170Z,23.73
2022-07-30T17:42:02.759Z,23.69
2022-07-30T17:44:29.414Z,23.79
2022-07-30T17:46:55.856Z,23.84
2022-07-30T17:49:22.268Z,23.93
2022-07-30T17:51:50.076Z,23.81
2022-07-30T17:54:16.404Z,23.83
2022-07-30T17:56:43.828Z,23.66
2022-07-30T17:59:13.841Z,23.66
2022-07-30T18:01:40.569Z,23.62
2022-07-30T18:04:07.044Z,23.52
2022-07-30T18:06:33.552Z,23.33
2022-07-30T18:09:00.163Z,23.10
2022-07-30T18:11:26.537Z,22.92
2022-07-30T18:13:53.000Z,22.76
2022-07-30T18:16:19.666Z,22.74
2022-07-30T18:18:46.013Z,22.70
2022-07-30T18:21:13.278Z,22.61
2022-07-30T18:23:39.750Z,22.48
2022-07-30T18:26:06.101Z,22.32
2022-07-30T18:28:33.311Z,22.13
2022-07-30T18:30:59.920Z,22.09
2022-07-30T18:33:26.270Z,22.01
2022-07-30T18:35:52.635Z,21.79
2022-07-30T18:38:19.070Z,21.67
2022-07-30T18:40:57.353Z,21.66
2022-07-30T18:43:25.500Z,21.65
2022-07-30T18:45:52.967Z,21.69
2022-07-30T18:48:20.031Z,21.63
2022-07-30T18:50:46.484Z,21.65
2022-07-30T18:53:15.311Z,21.59
2022-07-30T18:55:43.082Z,21.54
2022-07-30T18:58:09.466Z,21.53
2022-07-30T19:00:36.554Z,21.56
2022-07-30T19:03:03.591Z,21.49
2022-07-30T19:05:30.400Z,21.46
2022-07-30T19:07:57.909Z,21.54
2022-07-30T19:10:26.114Z,21.48
2022-07-30T19:12:53.254Z,21.32
2022-07-30T19:15:19.610Z,21.22
2022-07-30T19:17:47.044Z,21.04
2022-07-30T19:20:13.537Z,20.86
2022-07-30T19:22:41.458Z,20.85
2022-07-30T19:25:08.339Z,20.81
2022-07-30T19:27:34.675Z,20.76
2022-07-30T19:30:01.020Z,20.70
2022-07-30T19:32:30.054Z,20.64
2022-07-30T19:34:56.548Z,20.60
2022-07-30T19:37:22.934Z,20.63
2022-07-30T19:40:05.220Z,20.65
2022-07-30T19:42:33.857Z,20.61
2022-07-30T19:45:01.256Z,20.50
2022-07-30T19:47:39.350Z,20.39
2022-07-30T19:50:07.373Z,20.09
2022-07-30T19:52:35.879Z,20.04
2022-07-30T19:55:03.761Z,19.92
2022-07-30T19:57:53.306Z,19.88
2022-07-30T20:00:24.907Z,19.86
2022-07-30T20:02:52.059Z,19.84
2022-07-30T20:05:18.472Z,19.88
2022-07-30T20:07:45.611Z,19.82
2022-07-30T20:10:13.022Z,19.72
2022-07-30T20:15:29.479Z,19.43
2022-07-30T20:17:56.662Z,19.37
2022-07-30T20:20:26.037Z,19.29
2022-07-30T20:22:53.081Z,19.23
2022-07-30T20:25:19.901Z,19.24
2022-07-30T20:27:48.233Z,19.19
2022-07-30T20:30:15.571Z,19.15
2022-07-30T20:32:51.344Z,19.09
2022-07-30T20:35:20.068Z,19.08
2022-07-30T20:37:55.365Z,19.11
2022-07-30T20:40:23.067Z,19.10
2022-07-30T20:42:49.823Z,19.18
2022-07-30T20:45:16.447Z,19.23
2022-07-30T20:47:43.809Z,19.04
2022-07-30T20:50:14.348Z,19.07
2022-07-30T20:52:46.657Z,19.06
2022-07-30T20:55:16.276Z,19.09
2022-07-30T20:57:57.229Z,19.01
2022-07-30T21:00:30.049Z,18.98
2022-07-30T21:02:56.445Z,18.96
2022-07-30T21:05:22.872Z,18.92
2022-07-30T21:07:53.861Z,18.91
2022-07-30T21:10:23.489Z,18.86
2022-07-30T21:12:50.776Z,18.77
2022-07-30T21:15:24.167Z,18.72
2022-07-30T21:17:51.165Z,18.73
2022-07-30T21:20:27.883Z,18.72
2022-07-30T21:22:55.724Z,18.62
2022-07-30T21:25:23.423Z,18.64
2022-07-30T21:27:59.265Z,18.58
2022-07-30T21:30:26.332Z,18.47
2022-07-30T21:32:53.144Z,18.44
2022-07-30T21:35:19.809Z,18.38
2022-07-30T21:37:46.189Z,18.41
2022-07-30T21:40:13.724Z,18.34
2022-07-30T21:42:48.639Z,18.32
2022-07-30T21:45:15.398Z,18.22
2022-07-30T21:47:47.627Z,18.28
2022-07-30T21:50:16.138Z,18.31
2022-07-30T21:52:43.167Z,18.16
2022-07-30T21:55:09.785Z,18.17
2022-07-30T21:57:40.279Z,18.05
2022-07-30T22:00:14.678Z,18.04
2022-07-30T22:02:53.050Z,18.02
2022-07-30T22:05:20.288Z,17.92
2022-07-30T22:07:49.798Z,17.84
2022-07-30T22:10:21.547Z,17.79
2022-07-30T22:12:48.471Z,17.74
2022-07-30T22:15:15.106Z,17.72
2022-07-30T22:17:57.980Z,17.65
2022-07-30T22:20:27.919Z,17.64
2022-07-30T22:22:55.213Z,17.58
2022-07-30T22:25:21.969Z,17.48
2022-07-30T22:27:56.059Z,17.42
2022-07-30T22:30:26.526Z,17.44
2022-07-30T22:32:53.681Z,17.40
2022-07-30T22:35:32.008Z,17.44
2022-07-30T22:38:00.513Z,17.39
2022-07-30T22:40:26.919Z,17.35
2022-07-30T22:42:53.329Z,17.37
2022-07-30T22:45:34.059Z,17.35
2022-07-30T22:50:53.981Z,17.40
2022-07-30T22:54:03.708Z,17.33
2022-07-30T22:56:14.012Z,17.31
2022-07-30T22:58:40.590Z,17.35
2022-07-30T23:01:09.070Z,17.33
2022-07-30T23:03:37.303Z,17.29
2022-07-30T23:06:04.044Z,17.22
2022-07-30T23:08:30.938Z,17.28
2022-07-30T23:10:59.503Z,17.19
2022-07-30T23:12:16.598Z,19.61
2022-07-30T23:12:34.483Z,17.39
2022-07-30T23:13:26.004Z,17.21
2022-07-30T23:15:52.459Z,17.21
2022-07-30T23:18:18.888Z,17.16
2022-07-30T23:20:45.233Z,17.24
2022-07-30T23:23:11.700Z,17.25
2022-07-30T23:25:39.293Z,17.28
2022-07-30T23:28:06.199Z,17.26
2022-07-30T23:30:34.035Z,17.28
2022-07-30T23:33:01.090Z,17.27
2022-07-30T23:35:27.535Z,17.17
2022-07-30T23:37:53.903Z,17.19
2022-07-30T23:40:20.268Z,17.18
2022-07-30T23:42:49.849Z,17.08
2022-07-30T23:45:17.079Z,17.16
2022-07-30T23:48:00.799Z,17.12
2022-07-30T23:50:28.938Z,17.14
2022-07-30T23:52:55.638Z,17.01
2022-07-30T23:55:22.108Z,16.97
2022-07-30T23:57:48.505Z,16.91
